Time;durP1;ratioP1;P1;durP2;ratioP2;P2;SDS_P1;SDS_P2;PMS_P1;PMS_P2;Temp;Humidity;BMP_temperature;BMP_pressure;BME280_temperature;BME280_humidity;BME280_pressure;Samples;Min_cycle;Max_cycle;Signal;HPM_P1;HPM_P2
2023/09/12 00:00:41;;;;;;;9.48;5.60;;;;;;;-141.50;100.00;63355.56;5022506;28;20068;-80
2023/09/12 00:03:08;;;;;;;11.00;5.45;;;;;;;-141.50;100.00;63355.56;5042634;28;20053;-80
2023/09/12 00:05:35;;;;;;;6.75;4.82;;;;;;;-141.50;100.00;63355.56;5016951;28;20076;-80
2023/09/12 00:08:03;;;;;;;8.50;4.88;;;;;;;-141.50;100.00;63355.56;5033515;28;20900;-80
2023/09/12 00:10:30;;;;;;;8.85;4.85;;;;;;;-141.50;100.00;63355.56;5037027;28;20049;-81
2023/09/12 00:13:02;;;;;;;9.95;5.68;;;;;;;-141.50;100.00;63355.56;5038228;28;20041;-80
2023/09/12 00:15:29;;;;;;;12.80;5.65;;;;;;;-141.50;100.00;63355.56;5038772;28;20048;-80
2023/09/12 00:17:56;;;;;;;13.63;5.07;;;;;;;-141.50;100.00;63355.56;5021883;28;20041;-80
2023/09/12 00:20:23;;;;;;;10.00;5.60;;;;;;;-141.50;100.00;63355.56;5037501;28;20049;-79
2023/09/12 00:22:53;;;;;;;9.30;5.53;;;;;;;-141.50;100.00;63355.56;5041870;28;20103;-81
2023/09/12 00:25:20;;;;;;;8.95;5.40;;;;;;;-141.50;100.00;63355.56;5037788;28;20050;-80
2023/09/12 00:27:47;;;;;;;10.00;5.50;;;;;;;-141.50;100.00;63355.56;5041830;28;20045;-82
2023/09/12 00:30:15;;;;;;;11.65;5.55;;;;;;;-141.50;100.00;63355.56;5036373;28;20053;-82
2023/09/12 00:32:42;;;;;;;8.50;5.28;;;;;;;-141.50;100.00;63355.56;5019530;28;20045;-80
2023/09/12 00:35:09;;;;;;;10.20;5.60;;;;;;;-141.50;100.00;63355.56;5037514;28;20558;-79
2023/09/12 00:37:36;;;;;;;8.88;5.03;;;;;;;-141.50;100.00;63355.56;5037064;28;20065;-80
2023/09/12 00:40:04;;;;;;;10.98;5.22;;;;;;;-141.50;100.00;63355.56;5037222;28;20423;-80
2023/09/12 00:42:31;;;;;;;10.32;5.35;;;;;;;-141.50;100.00;63355.56;5036792;28;20041;-79
2023/09/12 00:44:57;;;;;;;9.55;5.22;;;;;;;-141.50;100.00;63355.56;5036587;28;20061;-80
2023/09/12 00:47:26;;;;;;;7.65;4.88;;;;;;;-141.50;100.00;63355.56;5019854;28;20132;-80
2023/09/12 00:49:56;;;;;;;9.32;5.72;;;;;;;-141.50;100.00;63355.56;5037431;28;20552;-80
2023/09/12 00:52:25;;;;;;;10.32;5.53;;;;;;;-141.50;100.00;63355.56;5018502;28;20049;-79
2023/09/12 00:54:53;;;;;;;9.75;5.57;;;;;;;-141.50;100.00;63355.56;5028889;28;20045;-79
2023/09/12 00:57:21;;;;;;;9.80;5.88;;;;;;;-141.50;100.00;63355.56;5033158;28;20061;-80
2023/09/12 00:59:49;;;;;;;10.32;5.10;;;;;;;-141.50;100.00;63355.56;5033148;28;20099;-80
2023/09/12 01:02:20;;;;;;;9.32;5.45;;;;;;;-141.50;100.00;63355.56;5030358;28;20049;-80
2023/09/12 01:04:48;;;;;;;9.80;5.40;;;;;;;-141.50;100.00;63355.56;5034082;28;20118;-79
2023/09/12 01:07:15;;;;;;;9.13;5.30;;;;;;;-141.50;100.00;63355.56;5017474;28;20053;-81
2023/09/12 01:09:45;;;;;;;8.90;5.47;;;;;;;-141.50;100.00;63355.56;5018986;28;20045;-79
2023/09/12 01:12:14;;;;;;;8.77;5.38;;;;;;;-141.50;100.00;63355.56;5012127;28;20419;-80
2023/09/12 01:14:41;;;;;;;8.93;5.53;;;;;;;-141.50;100.00;63355.56;5029421;28;20423;-79
2023/09/12 01:17:08;;;;;;;12.25;5.47;;;;;;;-141.50;100.00;63355.56;5030284;28;20088;-78
2023/09/12 01:19:35;;;;;;;9.77;5.85;;;;;;;-141.50;100.00;63355.56;5031988;28;20046;-79
2023/09/12 01:22:11;;;;;;;10.00;5.28;;;;;;;-141.50;100.00;63355.56;5015822;28;20104;-81
2023/09/12 01:24:59;;;;;;;9.45;5.75;;;;;;;-141.50;100.00;63355.56;5030752;28;20045;-80
2023/09/12 01:27:32;;;;;;;10.05;5.30;;;;;;;-141.50;100.00;63355.56;5048445;28;20133;-79
2023/09/12 01:30:03;;;;;;;11.13;6.05;;;;;;;-141.50;100.00;63355.56;5032582;28;20045;-79
2023/09/12 01:32:38;;;;;;;11.25;5.82;;;;;;;-141.50;100.00;63355.56;5033350;28;20049;-79
2023/09/12 01:35:06;;;;;;;10.00;5.80;;;;;;;-141.50;100.00;63355.56;5032840;28;20060;-79
2023/09/12 01:37:33;;;;;;;10.85;5.72;;;;;;;-141.50;100.00;63355.56;5033791;28;20064;-79
2023/09/12 01:40:00;;;;;;;8.27;5.22;;;;;;;-141.50;100.00;63355.56;5039302;28;20048;-79
2023/09/12 01:42:31;;;;;;;9.68;6.07;;;;;;;-141.50;100.00;63355.56;5043581;28;20076;-79
2023/09/12 01:44:59;;;;;;;9.02;5.82;;;;;;;-141.50;100.00;63355.56;5048305;28;20065;-79
2023/09/12 01:47:27;;;;;;;11.35;6.00;;;;;;;-141.50;100.00;63355.56;5059998;28;20075;-80
2023/09/12 01:49:56;;;;;;;8.75;5.65;;;;;;;-141.50;100.00;63355.56;5035307;28;20068;-79
2023/09/12 01:52:25;;;;;;;10.05;5.68;;;;;;;-141.50;100.00;63355.56;5036445;28;20354;-80
2023/09/12 01:54:53;;;;;;;10.15;5.85;;;;;;;-141.50;100.00;63355.56;5055035;28;20060;-80
2023/09/12 01:57:22;;;;;;;10.60;5.93;;;;;;;-141.50;100.00;63355.56;5039401;28;20103;-80
2023/09/12 01:59:49;;;;;;;11.15;6.10;;;;;;;-141.50;100.00;63355.56;5025800;28;20152;-79
2023/09/12 02:02:16;;;;;;;8.45;5.57;;;;;;;-141.50;100.00;63355.56;5042957;28;20061;-78
2023/09/12 02:05:12;;;;;;;12.40;5.50;;;;;;;-141.50;100.00;63355.56;5039027;28;20068;-80
2023/09/12 02:07:41;;;;;;;10.43;6.03;;;;;;;-141.50;100.00;63355.56;5036113;28;20173;-80
2023/09/12 02:10:09;;;;;;;9.02;5.40;;;;;;;-141.50;100.00;63355.56;5035842;28;20053;-80
2023/09/12 02:12:38;;;;;;;12.20;5.60;;;;;;;-141.50;100.00;63355.56;5044264;28;20042;-80
2023/09/12 02:15:06;;;;;;;9.48;5.43;;;;;;;-141.50;100.00;63355.56;5044259;28;20074;-80
2023/09/12 02:17:34;;;;;;;11.45;5.53;;;;;;;-141.50;100.00;63355.56;5042095;28;20041;-79
2023/09/12 02:20:01;;;;;;;9.80;5.30;;;;;;;-141.50;100.00;63355.56;5027927;28;20049;-79
2023/09/12 02:22:27;;;;;;;9.18;5.50;;;;;;;-141.50;100.00;63355.56;5028925;28;20541;-79
2023/09/12 02:24:54;;;;;;;9.95;5.80;;;;;;;-141.50;100.00;63355.56;5031307;28;20045;-78
2023/09/12 02:27:21;;;;;;;10.90;5.75;;;;;;;-141.50;100.00;63355.56;5019040;28;20030;-79
2023/09/12 02:29:48;;;;;;;10.68;5.75;;;;;;;-141.50;100.00;63355.56;5038263;28;20521;-80
2023/09/12 02:32:15;;;;;;;8.75;5.45;;;;;;;-141.50;100.00;63355.56;5037126;28;20077;-80
2023/09/12 02:34:41;;;;;;;11.88;6.38;;;;;;;-141.50;100.00;63355.56;5038073;28;20041;-80
2023/09/12 02:37:08;;;;;;;14.02;6.03;;;;;;;-141.50;100.00;63355.56;5036829;28;20057;-80
2023/09/12 02:39:35;;;;;;;9.25;5.65;;;;;;;-141.50;100.00;63355.56;5038123;28;20329;-80
2023/09/12 02:42:02;;;;;;;12.55;5.47;;;;;;;-141.50;100.00;63355.56;5046849;28;20041;-80
2023/09/12 02:44:29;;;;;;;10.00;5.68;;;;;;;-141.50;100.00;63355.56;5026116;28;20061;-80
2023/09/12 02:46:56;;;;;;;11.75;5.90;;;;;;;-141.50;100.00;63355.56;5043059;28;20136;-80
2023/09/12 02:49:23;;;;;;;10.85;5.78;;;;;;;-141.50;100.00;63355.56;5017993;28;20037;-80
2023/09/12 02:51:49;;;;;;;8.95;5.30;;;;;;;-141.50;100.00;63355.56;5038091;28;20358;-79
2023/09/12 02:54:16;;;;;;;9.55;5.85;;;;;;;-141.50;100.00;63355.56;5034127;28;20039;-79
2023/09/12 02:56:43;;;;;;;10.27;5.72;;;;;;;-141.50;100.00;63355.56;5034938;28;20109;-78
2023/09/12 02:59:10;;;;;;;9.88;5.32;;;;;;;-141.50;100.00;63355.56;5034395;28;20523;-80
2023/09/12 03:01:37;;;;;;;8.43;5.43;;;;;;;-141.50;100.00;63355.56;5020753;28;20095;-80
2023/09/12 03:04:07;;;;;;;10.60;5.90;;;;;;;-141.50;100.00;63355.56;5035731;28;20638;-80
2023/09/12 03:06:34;;;;;;;14.43;5.95;;;;;;;-141.50;100.00;63355.56;5035423;28;20049;-80
2023/09/12 03:09:01;;;;;;;9.27;5.35;;;;;;;-141.50;100.00;63355.56;5031429;28;20042;-79
2023/09/12 03:11:29;;;;;;;8.55;5.50;;;;;;;-141.50;100.00;63355.56;5013592;28;20523;-80
2023/09/12 03:13:56;;;;;;;9.57;5.55;;;;;;;-141.50;100.00;63355.56;5034966;28;20538;-81
2023/09/12 03:16:24;;;;;;;11.60;5.88;;;;;;;-141.50;100.00;63355.56;5035889;28;20041;-79
2023/09/12 03:18:51;;;;;;;12.32;5.78;;;;;;;-141.50;100.00;63355.56;5037430;28;20124;-80
2023/09/12 03:21:18;;;;;;;11.48;5.30;;;;;;;-141.50;100.00;63355.56;5034998;28;20045;-79
2023/09/12 03:23:45;;;;;;;12.45;5.80;;;;;;;-141.50;100.00;63355.56;5033316;28;20060;-80
2023/09/12 03:26:11;;;;;;;10.15;4.97;;;;;;;-141.50;100.00;63355.56;5015836;28;20140;-80
2023/09/12 03:28:41;;;;;;;10.57;5.50;;;;;;;-141.50;100.00;63355.56;5032367;28;20392;-80
2023/09/12 03:31:14;;;;;;;11.25;6.07;;;;;;;-141.50;100.00;63355.56;5037271;28;20049;-81
2023/09/12 03:33:42;;;;;;;9.23;5.70;;;;;;;-141.50;100.00;63355.56;5022213;28;20045;-80
2023/09/12 03:36:10;;;;;;;13.07;6.13;;;;;;;-141.50;100.00;63355.56;5037979;28;20045;-81
2023/09/12 03:38:36;;;;;;;9.38;5.75;;;;;;;-141.50;100.00;63355.56;5030822;28;20088;-79
2023/09/12 03:41:03;;;;;;;10.80;5.65;;;;;;;-141.50;100.00;63355.56;5028969;28;20056;-79
2023/09/12 03:43:30;;;;;;;9.73;5.57;;;;;;;-141.50;100.00;63355.56;5036233;28;20037;-80
2023/09/12 03:45:57;;;;;;;10.57;5.82;;;;;;;-141.50;100.00;63355.56;5039034;28;20108;-80
2023/09/12 03:48:30;;;;;;;9.43;5.40;;;;;;;-141.50;100.00;63355.56;5038613;28;20045;-81
2023/09/12 03:50:57;;;;;;;11.77;5.97;;;;;;;-141.50;100.00;63355.56;5044235;28;20124;-81
2023/09/12 03:53:26;;;;;;;9.60;5.60;;;;;;;-141.50;100.00;63355.56;5038426;28;20041;-80
2023/09/12 03:55:52;;;;;;;14.20;6.15;;;;;;;-141.50;100.00;63355.56;5038488;28;20041;-80
2023/09/12 03:58:19;;;;;;;9.35;5.75;;;;;;;-141.50;100.00;63355.56;5039530;28;20060;-80
2023/09/12 04:00:46;;;;;;;9.70;5.43;;;;;;;-141.50;100.00;63355.56;5043841;28;20045;-80
2023/09/12 04:03:13;;;;;;;11.45;6.28;;;;;;;-141.50;100.00;63355.56;5040391;28;20049;-81
2023/09/12 04:05:40;;;;;;;9.77;5.60;;;;;;;-141.50;100.00;63355.56;5023266;28;20045;-79
2023/09/12 04:08:06;;;;;;;10.40;5.57;;;;;;;-141.50;100.00;63355.56;5039073;28;20132;-80
2023/09/12 04:10:33;;;;;;;12.30;6.32;;;;;;;-141.50;100.00;63355.56;5039173;28;20515;-80
2023/09/12 04:13:00;;;;;;;11.93;5.68;;;;;;;-141.50;100.00;63355.56;5041505;28;20046;-80
2023/09/12 04:15:27;;;;;;;9.70;5.63;;;;;;;-141.50;100.00;63355.56;5038503;28;20061;-82
2023/09/12 04:17:54;;;;;;;9.80;5.93;;;;;;;-141.50;100.00;63355.56;5023055;28;20105;-82
2023/09/12 04:20:21;;;;;;;12.30;5.60;;;;;;;-141.50;100.00;63355.56;5015656;28;20057;-82
2023/09/12 04:22:47;;;;;;;13.27;5.88;;;;;;;-141.50;100.00;63355.56;5019098;28;20045;-82
2023/09/12 04:25:14;;;;;;;9.85;5.97;;;;;;;-141.50;100.00;63355.56;5036993;28;20045;-80
2023/09/12 04:27:41;;;;;;;9.10;5.65;;;;;;;-141.50;100.00;63355.56;5035299;28;20046;-79
2023/09/12 04:30:09;;;;;;;11.10;5.32;;;;;;;-141.50;100.00;63355.56;5027620;28;20057;-78
2023/09/12 04:32:36;;;;;;;12.52;6.75;;;;;;;-141.50;100.00;63355.56;5027058;28;20060;-78
2023/09/12 04:35:03;;;;;;;11.15;5.55;;;;;;;-141.50;100.00;63355.56;5026953;28;20067;-77
2023/09/12 04:37:30;;;;;;;11.07;5.40;;;;;;;-141.50;100.00;63355.56;5012243;28;20041;-78
2023/09/12 04:39:57;;;;;;;14.50;5.85;;;;;;;-141.50;100.00;63355.56;5031316;28;20068;-78
2023/09/12 04:42:23;;;;;;;8.30;5.32;;;;;;;-141.50;100.00;63355.56;5041726;28;20192;-80
2023/09/12 04:44:50;;;;;;;12.95;6.35;;;;;;;-141.50;100.00;63355.56;5021391;28;20588;-79
2023/09/12 04:47:17;;;;;;;10.48;5.60;;;;;;;-141.50;100.00;63355.56;5048678;28;20054;-80
2023/09/12 04:49:44;;;;;;;9.23;5.60;;;;;;;-141.50;100.00;63355.56;5032637;28;20037;-80
2023/09/12 04:52:11;;;;;;;10.35;5.82;;;;;;;-141.50;100.00;63355.56;5032353;28;20050;-79
2023/09/12 04:54:38;;;;;;;12.00;5.70;;;;;;;-141.50;100.00;63355.56;5016079;28;20046;-79
2023/09/12 04:57:06;;;;;;;10.20;5.78;;;;;;;-141.50;100.00;63355.56;5032428;28;20053;-79
2023/09/12 04:59:32;;;;;;;9.77;6.25;;;;;;;-141.50;100.00;63355.56;5016083;28;20041;-80
2023/09/12 05:01:59;;;;;;;12.13;6.30;;;;;;;-141.50;100.00;63355.56;5009764;28;20049;-79
2023/09/12 05:04:26;;;;;;;11.27;5.82;;;;;;;-141.50;100.00;63355.56;5015048;28;20099;-81
2023/09/12 05:06:53;;;;;;;10.85;5.80;;;;;;;-141.50;100.00;63355.56;5026584;28;20076;-79
2023/09/12 05:09:20;;;;;;;12.25;6.43;;;;;;;-141.50;100.00;63355.56;5029347;28;20753;-82
2023/09/12 05:11:47;;;;;;;11.23;5.93;;;;;;;-141.50;100.00;63355.56;5035715;28;20057;-79
2023/09/12 05:14:13;;;;;;;10.05;5.85;;;;;;;-141.50;100.00;63355.56;5020401;28;20042;-78
2023/09/12 05:16:40;;;;;;;9.35;5.65;;;;;;;-141.50;100.00;63355.56;5032427;28;20038;-76
2023/09/12 05:19:07;;;;;;;13.07;6.80;;;;;;;-141.50;100.00;63355.56;5040205;28;20057;-78
2023/09/12 05:21:34;;;;;;;11.43;6.30;;;;;;;-141.50;100.00;63355.56;5046261;28;20037;-78
2023/09/12 05:24:01;;;;;;;9.38;5.88;;;;;;;-141.50;100.00;63355.56;5032940;28;20054;-78
2023/09/12 05:26:28;;;;;;;12.57;6.32;;;;;;;-141.50;100.00;63355.56;5034015;28;20056;-78
2023/09/12 05:28:54;;;;;;;11.32;5.70;;;;;;;-141.50;100.00;63355.56;5035459;28;20645;-77
2023/09/12 05:31:21;;;;;;;11.20;5.93;;;;;;;-141.50;100.00;63355.56;5018934;28;20057;-78
2023/09/12 05:33:49;;;;;;;10.45;5.93;;;;;;;-141.50;100.00;63355.56;5036228;28;20072;-78
2023/09/12 05:36:16;;;;;;;9.38;5.60;;;;;;;-141.50;100.00;63355.56;5035595;28;20053;-77
2023/09/12 05:38:43;;;;;;;8.18;5.40;;;;;;;-141.50;100.00;63355.56;5020032;28;20312;-78
2023/09/12 05:41:11;;;;;;;10.98;5.53;;;;;;;-141.50;100.00;63355.56;5038454;28;20097;-77
2023/09/12 05:43:38;;;;;;;10.55;5.82;;;;;;;-141.50;100.00;63355.56;5025252;28;20048;-76
2023/09/12 05:46:04;;;;;;;11.90;5.65;;;;;;;-141.50;100.00;63355.56;5042817;28;20057;-77
2023/09/12 05:48:31;;;;;;;10.00;5.85;;;;;;;-141.50;100.00;63355.56;5043300;28;20076;-77
2023/09/12 05:50:58;;;;;;;9.02;5.28;;;;;;;-141.50;100.00;63355.56;5018589;28;20056;-78
2023/09/12 05:53:25;;;;;;;9.73;5.70;;;;;;;-141.50;100.00;63355.56;5028655;28;20107;-78
2023/09/12 05:55:52;;;;;;;9.75;5.35;;;;;;;-141.50;100.00;63355.56;5029219;28;20049;-77
2023/09/12 05:58:19;;;;;;;8.32;5.25;;;;;;;-141.50;100.00;63355.56;5028570;28;20054;-78
2023/09/12 06:00:47;;;;;;;9.02;5.00;;;;;;;-141.50;100.00;63355.56;5031454;28;20499;-77
2023/09/12 06:03:15;;;;;;;8.85;5.30;;;;;;;-141.50;100.00;63355.56;5037111;28;20053;-78
2023/09/12 06:05:43;;;;;;;9.05;6.00;;;;;;;-141.50;100.00;63355.56;5052183;28;20511;-77
2023/09/12 06:08:10;;;;;;;9.40;5.30;;;;;;;-141.50;100.00;63355.56;5033414;28;20057;-78
2023/09/12 06:10:37;;;;;;;16.63;6.50;;;;;;;-141.50;100.00;63355.56;5033541;28;20037;-78
2023/09/12 06:13:04;;;;;;;11.80;6.25;;;;;;;-141.50;100.00;63355.56;5034004;28;20073;-77
2023/09/12 06:15:31;;;;;;;14.93;7.38;;;;;;;-141.50;100.00;63355.56;5034104;28;20065;-77
2023/09/12 06:17:58;;;;;;;11.68;6.30;;;;;;;-141.50;100.00;63355.56;5046975;28;20060;-77
2023/09/12 06:20:24;;;;;;;11.35;6.50;;;;;;;-141.50;100.00;63355.56;5050294;28;20414;-77
2023/09/12 06:22:51;;;;;;;14.27;6.72;;;;;;;-141.50;100.00;63355.56;5032259;28;20048;-77
2023/09/12 06:25:18;;;;;;;15.27;6.25;;;;;;;-141.50;100.00;63355.56;5048642;28;20041;-76
2023/09/12 06:27:45;;;;;;;13.43;6.55;;;;;;;-141.50;100.00;63355.56;5049224;28;20120;-78
2023/09/12 06:30:12;;;;;;;12.25;6.57;;;;;;;-141.50;100.00;63355.56;5047704;28;20378;-76
2023/09/12 06:32:39;;;;;;;13.35;6.25;;;;;;;-141.50;100.00;63355.56;5047073;28;20045;-77
2023/09/12 06:35:07;;;;;;;11.88;6.25;;;;;;;-141.50;100.00;63355.56;5031439;28;20065;-77
2023/09/12 06:37:34;;;;;;;12.13;6.85;;;;;;;-141.50;100.00;63355.56;5030811;28;20045;-78
2023/09/12 06:40:01;;;;;;;9.90;6.28;;;;;;;-141.50;100.00;63355.56;5030016;28;20045;-77
2023/09/12 06:42:27;;;;;;;10.05;6.13;;;;;;;-141.50;100.00;63355.56;5030631;28;20052;-77
2023/09/12 06:44:54;;;;;;;13.60;6.10;;;;;;;-141.50;100.00;63355.56;5014347;28;20068;-77
2023/09/12 06:47:21;;;;;;;12.68;6.30;;;;;;;-141.50;100.00;63355.56;5030387;28;20565;-77
2023/09/12 06:49:48;;;;;;;14.10;5.68;;;;;;;-141.50;100.00;63355.56;5040556;28;20048;-78
2023/09/12 06:52:21;;;;;;;13.00;6.15;;;;;;;-141.50;100.00;63355.56;5038342;28;20052;-78
2023/09/12 06:54:48;;;;;;;11.57;6.03;;;;;;;-141.50;100.00;63355.56;5038862;28;20052;-78
2023/09/12 06:57:15;;;;;;;12.00;6.00;;;;;;;-141.50;100.00;63355.56;5033608;28;20329;-78
2023/09/12 06:59:42;;;;;;;11.32;6.10;;;;;;;-141.50;100.00;63355.56;5032411;28;20109;-77
2023/09/12 07:02:11;;;;;;;11.27;6.30;;;;;;;-141.50;100.00;63355.56;5041447;28;20045;-77
2023/09/12 07:04:38;;;;;;;11.68;6.10;;;;;;;-141.50;100.00;63355.56;5043417;28;20041;-77
2023/09/12 07:07:04;;;;;;;11.07;6.18;;;;;;;-141.50;100.00;63355.56;5044784;28;20080;-77
2023/09/12 07:09:31;;;;;;;14.70;6.60;;;;;;;-141.50;100.00;63355.56;5035686;28;20053;-78
2023/09/12 07:11:58;;;;;;;10.15;6.32;;;;;;;-141.50;100.00;63355.56;5032504;28;20037;-78
2023/09/12 07:14:25;;;;;;;12.65;6.15;;;;;;;-141.50;100.00;63355.56;5037191;28;20050;-78
2023/09/12 07:16:52;;;;;;;11.57;5.80;;;;;;;-141.50;100.00;63355.56;5035218;28;20103;-77
2023/09/12 07:19:19;;;;;;;11.68;6.75;;;;;;;-141.50;100.00;63355.56;5035586;28;20050;-78
2023/09/12 07:21:46;;;;;;;12.15;5.97;;;;;;;-141.50;100.00;63355.56;5032768;28;20045;-78
2023/09/12 07:24:13;;;;;;;11.63;6.05;;;;;;;-141.50;100.00;63355.56;5033028;28;20041;-78
2023/09/12 07:26:40;;;;;;;13.00;5.45;;;;;;;-141.50;100.00;63355.56;5032416;28;20527;-78
2023/09/12 07:29:07;;;;;;;10.82;5.25;;;;;;;-141.50;100.00;63355.56;5034346;28;20050;-78
2023/09/12 07:31:33;;;;;;;7.88;5.03;;;;;;;-141.50;100.00;63355.56;5033546;28;20052;-77
2023/09/12 07:34:00;;;;;;;12.95;5.25;;;;;;;-141.50;100.00;63355.56;5034684;28;20049;-78
2023/09/12 07:36:27;;;;;;;11.30;5.38;;;;;;;-141.50;100.00;63355.56;5021375;28;20056;-78
2023/09/12 07:38:54;;;;;;;11.48;5.13;;;;;;;-141.50;100.00;63355.56;5047152;28;20132;-78
2023/09/12 07:41:21;;;;;;;11.45;5.32;;;;;;;-141.50;100.00;63355.56;5055090;28;20061;-78
2023/09/12 07:43:48;;;;;;;11.88;5.40;;;;;;;-141.50;100.00;63355.56;5039329;28;20133;-78
2023/09/12 07:46:14;;;;;;;11.57;4.97;;;;;;;-141.50;100.00;63355.56;5039568;28;20053;-78
2023/09/12 07:48:41;;;;;;;7.82;4.90;;;;;;;-141.50;100.00;63355.56;5039712;28;20041;-78
2023/09/12 07:51:14;;;;;;;11.45;5.22;;;;;;;-141.50;100.00;63355.56;5037769;28;20045;-78
2023/09/12 07:53:41;;;;;;;9.35;5.00;;;;;;;-141.50;100.00;63355.56;5037007;28;20053;-78
2023/09/12 07:56:10;;;;;;;12.77;4.97;;;;;;;-141.50;100.00;63355.56;5027453;28;20127;-77
2023/09/12 07:58:36;;;;;;;10.43;4.50;;;;;;;-141.50;100.00;63355.56;5028846;28;20068;-77
2023/09/12 08:01:08;;;;;;;10.18;4.72;;;;;;;-141.50;100.00;63355.56;5027581;28;20061;-77
2023/09/12 08:03:36;;;;;;;8.68;4.82;;;;;;;-141.50;100.00;63355.56;5028041;28;20511;-77
2023/09/12 08:06:03;;;;;;;9.18;4.57;;;;;;;-141.50;100.00;63355.56;5027905;28;20038;-77
2023/09/12 08:08:30;;;;;;;10.43;4.80;;;;;;;-141.50;100.00;63355.56;5043520;28;20500;-77
2023/09/12 08:10:57;;;;;;;7.53;4.30;;;;;;;-141.50;100.00;63355.56;5026857;28;20049;-77
2023/09/12 08:13:27;;;;;;;7.97;4.07;;;;;;;-141.50;100.00;63355.56;5027152;28;20045;-76
2023/09/12 08:15:54;;;;;;;9.13;4.53;;;;;;;-141.50;100.00;63355.56;5043206;28;20507;-77
2023/09/12 08:18:21;;;;;;;7.07;3.72;;;;;;;-141.50;100.00;63355.56;5027027;28;20046;-77
2023/09/12 08:20:48;;;;;;;6.88;4.07;;;;;;;-141.50;100.00;63355.56;5034976;28;20044;-77
2023/09/12 08:23:15;;;;;;;5.95;3.45;;;;;;;-141.50;100.00;63355.56;5025660;28;20041;-77
2023/09/12 08:25:42;;;;;;;7.50;3.45;;;;;;;-141.50;100.00;63355.56;5028477;28;20072;-77
2023/09/12 08:28:09;;;;;;;5.68;3.10;;;;;;;-141.50;100.00;63355.56;5026734;28;20152;-77
2023/09/12 08:30:35;;;;;;;7.82;3.78;;;;;;;-141.50;100.00;63355.56;5027015;28;20045;-77
2023/09/12 08:33:03;;;;;;;9.32;3.70;;;;;;;-141.50;100.00;63355.56;5010823;28;20037;-77
2023/09/12 08:35:30;;;;;;;5.18;3.25;;;;;;;-141.50;100.00;63355.56;5027536;28;20033;-77
2023/09/12 08:37:57;;;;;;;5.82;3.38;;;;;;;-141.50;100.00;63355.56;5028700;28;20052;-77
2023/09/12 08:40:24;;;;;;;5.30;3.33;;;;;;;-141.50;100.00;63355.56;5010011;28;20053;-77
2023/09/12 08:42:52;;;;;;;6.75;3.33;;;;;;;-141.50;100.00;63355.56;5009943;28;20534;-77
2023/09/12 08:45:19;;;;;;;6.40;2.97;;;;;;;-141.50;100.00;63355.56;5026129;28;20060;-77
2023/09/12 08:47:51;;;;;;;8.95;3.40;;;;;;;-141.50;100.00;63355.56;5027518;28;20115;-77
2023/09/12 08:50:21;;;;;;;6.90;3.60;;;;;;;-141.50;100.00;63355.56;5027249;28;20057;-77
2023/09/12 08:52:47;;;;;;;8.02;3.03;;;;;;;-141.50;100.00;63355.56;5034053;28;20048;-77
2023/09/12 08:55:34;;;;;;;6.03;3.22;;;;;;;-141.50;100.00;63355.56;5026645;28;20695;-77
2023/09/12 08:58:03;;;;;;;6.53;3.13;;;;;;;-141.50;100.00;63355.56;5026105;28;20046;-77
2023/09/12 09:00:30;;;;;;;8.07;3.30;;;;;;;-141.50;100.00;63355.56;5026534;28;20628;-77
2023/09/12 09:02:58;;;;;;;7.43;3.22;;;;;;;-141.50;100.00;63355.56;5026672;28;20450;-77
2023/09/12 09:05:27;;;;;;;6.78;3.38;;;;;;;-141.50;100.00;63355.56;5025865;28;20042;-77
2023/09/12 09:07:55;;;;;;;8.15;3.13;;;;;;;-141.50;100.00;63355.56;5027308;28;20742;-77
2023/09/12 09:10:23;;;;;;;7.18;3.45;;;;;;;-141.50;100.00;63355.56;5041046;28;20053;-77
2023/09/12 09:13:09;;;;;;;;;;;;;;;-141.50;100.00;63355.56;5041846;28;20128;-77
2023/09/12 09:15:41;;;;;;;7.78;3.13;;;;;;;-141.50;100.00;63355.56;5027523;28;19921;-77
2023/09/12 09:18:10;;;;;;;9.57;3.53;;;;;;;-141.50;100.00;63355.56;5027045;28;20045;-77
2023/09/12 09:20:38;;;;;;;7.68;3.60;;;;;;;-141.50;100.00;63355.56;5009252;28;20534;-77
2023/09/12 09:23:11;;;;;;;9.00;3.30;;;;;;;-141.50;100.00;63355.56;5025069;28;20057;-77
2023/09/12 09:25:41;;;;;;;7.57;3.40;;;;;;;-141.50;100.00;63355.56;5027067;28;20542;-77
2023/09/12 09:28:19;;;;;;;7.45;2.90;;;;;;;-141.50;100.00;63355.56;5027082;28;20046;-77
2023/09/12 09:30:47;;;;;;;14.32;3.10;;;;;;;-141.50;100.00;63355.56;5041859;28;20146;-77
2023/09/12 09:33:15;;;;;;;11.73;3.75;;;;;;;-141.50;100.00;63355.56;5026616;28;20488;-77
2023/09/12 09:35:43;;;;;;;9.32;2.75;;;;;;;-141.50;100.00;63355.56;5025588;28;20101;-77
2023/09/12 09:38:12;;;;;;;9.40;3.17;;;;;;;-141.50;100.00;63355.56;5025601;28;20083;-77
2023/09/12 09:40:39;;;;;;;7.57;3.17;;;;;;;-141.50;100.00;63355.56;5026746;28;20068;-77
2023/09/12 09:43:06;;;;;;;9.35;3.45;;;;;;;-141.50;100.00;63355.56;5026314;28;20041;-77
2023/09/12 09:45:43;;;;;;;8.05;3.08;;;;;;;-141.50;100.00;63355.56;5027483;28;20049;-77
2023/09/12 09:48:18;;;;;;;5.57;2.67;;;;;;;-141.50;100.00;63355.56;5025778;28;20102;-77
2023/09/12 09:50:45;;;;;;;6.55;2.85;;;;;;;-141.50;100.00;63355.56;5026268;28;20056;-77
2023/09/12 09:53:12;;;;;;;8.35;2.78;;;;;;;-141.50;100.00;63355.56;5024935;28;20046;-77
2023/09/12 09:55:38;;;;;;;9.95;2.97;;;;;;;-141.50;100.00;63355.56;5026318;28;20045;-77
2023/09/12 09:58:05;;;;;;;8.90;2.85;;;;;;;-141.50;100.00;63355.56;5027033;28;20594;-77
2023/09/12 10:00:34;;;;;;;9.20;2.85;;;;;;;-141.50;100.00;63355.56;5027821;28;20041;-77
2023/09/12 10:03:08;;;;;;;7.75;3.20;;;;;;;-141.50;100.00;63355.56;5029089;28;21648;-77
2023/09/12 10:05:37;;;;;;;8.40;2.97;;;;;;;-141.50;100.00;63355.56;5025831;28;21552;-77
2023/09/12 10:08:09;;;;;;;6.88;2.80;;;;;;;-141.50;100.00;63355.56;5026491;28;20054;-77
2023/09/12 10:10:38;;;;;;;7.22;2.75;;;;;;;-141.50;100.00;63355.56;5027894;28;20049;-76
2023/09/12 10:13:06;;;;;;;7.90;2.60;;;;;;;-141.50;100.00;63355.56;5027179;28;20053;-75
2023/09/12 10:15:36;;;;;;;12.35;2.92;;;;;;;-141.50;100.00;63355.56;5028859;28;20041;-76
2023/09/12 10:18:09;;;;;;;5.68;2.65;;;;;;;-141.50;100.00;63355.56;5025894;28;20037;-77
2023/09/12 10:20:52;;;;;;;5.38;2.35;;;;;;;-141.50;100.00;63355.56;5026373;28;20348;-77
2023/09/12 10:23:27;;;;;;;6.05;2.85;;;;;;;-141.50;100.00;63355.56;5026581;28;20705;-77
2023/09/12 10:25:55;;;;;;;5.30;2.43;;;;;;;-141.50;100.00;63355.56;5027524;28;20046;-77
2023/09/12 10:28:25;;;;;;;7.15;2.97;;;;;;;-141.50;100.00;63355.56;5027179;28;20132;-77
2023/09/12 10:30:53;;;;;;;6.32;2.70;;;;;;;-141.50;100.00;63355.56;5026844;28;20045;-77
2023/09/12 10:33:20;;;;;;;5.32;2.58;;;;;;;-141.50;100.00;63355.56;5026483;28;20053;-77
2023/09/12 10:35:50;;;;;;;5.13;2.60;;;;;;;-141.50;100.00;63355.56;5026512;28;20113;-77
2023/09/12 10:38:20;;;;;;;9.65;2.60;;;;;;;-141.50;100.00;63355.56;5029111;28;20128;-76
2023/09/12 10:40:48;;;;;;;5.50;2.50;;;;;;;-141.50;100.00;63355.56;5032131;28;20049;-77
2023/09/12 10:43:15;;;;;;;3.90;2.38;;;;;;;-141.50;100.00;63355.56;5037128;28;20127;-77
2023/09/12 10:45:43;;;;;;;5.47;2.83;;;;;;;-141.50;100.00;63355.56;5039896;28;20132;-77
2023/09/12 10:48:11;;;;;;;3.25;2.30;;;;;;;-141.50;100.00;63355.56;5034492;28;20794;-76
2023/09/12 10:50:39;;;;;;;7.40;2.72;;;;;;;-141.50;100.00;63355.56;5033806;28;20662;-76
2023/09/12 10:53:14;;;;;;;8.40;2.60;;;;;;;-141.50;100.00;63355.56;5047604;28;20046;-76
2023/09/12 10:55:42;;;;;;;7.38;2.50;;;;;;;-141.50;100.00;63355.56;5028874;28;20814;-76
2023/09/12 10:58:10;;;;;;;7.20;2.53;;;;;;;-141.50;100.00;63355.56;5029798;28;20050;-76
2023/09/12 11:00:38;;;;;;;7.65;3.38;;;;;;;-141.50;100.00;63355.56;5028977;28;20081;-76
2023/09/12 11:03:27;;;;;;;7.05;2.60;;;;;;;-141.50;100.00;63355.56;5027578;28;20099;-77
2023/09/12 11:05:56;;;;;;;6.70;2.80;;;;;;;-141.50;100.00;63355.56;5027487;28;20096;-76
2023/09/12 11:08:24;;;;;;;5.60;2.42;;;;;;;-141.50;100.00;63355.56;5029309;28;20037;-76
2023/09/12 11:11:18;;;;;;;5.82;2.63;;;;;;;-141.50;100.00;63355.56;5029572;28;20561;-76